createdAt,value
2018-10-11T00:01:11.931Z,17.35
2018-10-11T00:03:41.200Z,16.50
2018-10-11T00:06:10.490Z,16.93
2018-10-11T00:08:39.725Z,17.90
2018-10-11T00:11:09.170Z,18.40
2018-10-11T00:13:38.415Z,19.33
2018-10-11T00:16:07.671Z,18.67
2018-10-11T00:18:36.969Z,19.50
2018-10-11T00:21:06.550Z,16.50
2018-10-11T00:23:35.886Z,16.70
2018-10-11T00:26:05.887Z,16.70
2018-10-11T00:28:35.167Z,16.83
2018-10-11T00:31:04.696Z,17.73
2018-10-11T00:33:34.916Z,17.67
2018-10-11T00:36:04.212Z,18.65
2018-10-11T00:38:33.566Z,16.60
2018-10-11T00:41:02.935Z,17.00
2018-10-11T00:43:32.344Z,18.70
2018-10-11T00:46:01.515Z,18.03
2018-10-11T00:48:30.734Z,17.60
2018-10-11T00:50:59.951Z,17.62
2018-10-11T00:53:29.187Z,17.57
2018-10-11T00:55:58.364Z,18.23
2018-10-11T00:58:27.581Z,18.53
2018-10-11T01:00:56.801Z,18.30
2018-10-11T01:03:26.062Z,18.80
2018-10-11T01:05:55.326Z,19.23
2018-10-11T01:08:24.565Z,19.30
2018-10-11T01:10:53.756Z,18.60
2018-10-11T01:13:22.962Z,18.27
2018-10-11T01:15:53.048Z,20.00
2018-10-11T01:18:22.230Z,19.43
2018-10-11T01:20:51.603Z,19.60
2018-10-11T01:23:20.782Z,18.20
2018-10-11T01:25:50.027Z,19.00
2018-10-11T01:28:19.238Z,17.40
2018-10-11T01:30:53.668Z,18.10
2018-10-11T01:33:22.835Z,17.90
2018-10-11T01:35:52.067Z,18.73
2018-10-11T01:38:21.947Z,19.23
2018-10-11T01:40:51.208Z,19.30
2018-10-11T01:43:20.463Z,20.27
2018-10-11T01:45:49.778Z,19.47
2018-10-11T01:48:18.970Z,20.40
2018-10-11T01:50:48.243Z,19.40
2018-10-11T01:53:17.468Z,19.07
2018-10-11T01:55:46.667Z,18.00
2018-10-11T01:58:16.376Z,18.63
2018-10-11T02:00:44.625Z,18.63
2018-10-11T02:03:13.895Z,19.90
2018-10-11T02:05:43.084Z,18.40
2018-10-11T02:08:12.259Z,20.40
2018-10-11T02:10:41.493Z,18.53
2018-10-11T02:13:10.682Z,18.93
2018-10-11T02:15:39.912Z,18.67
2018-10-11T02:18:09.104Z,19.10
2018-10-11T02:20:38.299Z,19.00
2018-10-11T02:23:07.721Z,20.63
2018-10-11T02:25:37.257Z,20.05
2018-10-11T02:28:07.023Z,19.40
2018-10-11T02:30:36.235Z,20.60
2018-10-11T02:33:05.411Z,20.27
2018-10-11T02:35:34.632Z,20.70
2018-10-11T02:38:03.812Z,21.30
2018-10-11T02:40:33.050Z,20.80
2018-10-11T02:43:02.227Z,19.07
2018-10-11T02:45:31.475Z,21.60
2018-10-11T02:48:00.728Z,18.80
2018-10-11T02:50:29.950Z,21.20
2018-10-11T02:52:59.123Z,20.43
2018-10-11T02:55:28.466Z,20.47
2018-10-11T02:58:08.680Z,19.57
2018-10-11T03:00:37.902Z,22.47
2018-10-11T03:03:13.351Z,21.17
2018-10-11T03:05:46.079Z,22.27
2018-10-11T03:08:18.651Z,22.30
2018-10-11T03:10:48.286Z,22.83
2018-10-11T03:13:17.631Z,22.00
2018-10-11T03:15:46.862Z,24.57
2018-10-11T03:18:16.226Z,23.90
2018-10-11T03:20:45.874Z,21.10
2018-10-11T03:23:16.232Z,21.70
2018-10-11T03:25:46.189Z,22.20
2018-10-11T03:28:16.911Z,22.20
2018-10-11T03:30:46.076Z,21.60
2018-10-11T03:33:15.748Z,22.40
2018-10-11T03:35:45.183Z,24.13
2018-10-11T03:38:14.563Z,22.53
2018-10-11T03:40:43.870Z,20.07
2018-10-11T03:43:13.716Z,22.17
2018-10-11T03:45:42.880Z,23.03
2018-10-11T03:48:12.576Z,23.32
2018-10-11T03:50:41.801Z,22.30
2018-10-11T03:53:10.997Z,21.87
2018-10-11T03:55:40.195Z,21.73
2018-10-11T03:58:09.387Z,22.10
2018-10-11T04:00:38.665Z,22.47
2018-10-11T04:03:07.915Z,23.40
2018-10-11T04:05:37.099Z,23.30
2018-10-11T04:08:06.463Z,21.53
2018-10-11T04:10:35.742Z,23.03
2018-10-11T04:13:04.969Z,22.07
2018-10-11T04:15:34.265Z,22.43
2018-10-11T04:18:03.418Z,22.60
2018-10-11T04:20:32.625Z,22.93
2018-10-11T04:23:01.847Z,24.50
2018-10-11T04:25:31.026Z,24.40
2018-10-11T04:28:00.263Z,23.70
2018-10-11T04:30:29.466Z,21.30
2018-10-11T04:32:58.692Z,23.30
2018-10-11T04:35:27.887Z,23.77
2018-10-11T04:37:57.088Z,22.48
2018-10-11T04:40:26.299Z,22.53
2018-10-11T04:42:55.588Z,23.77
2018-10-11T04:45:24.683Z,24.43
2018-10-11T04:47:53.975Z,23.47
2018-10-11T04:50:23.155Z,22.48
2018-10-11T04:52:52.379Z,24.03
2018-10-11T04:55:21.571Z,23.80
2018-10-11T04:57:50.793Z,24.40
2018-10-11T05:00:20.120Z,23.47
2018-10-11T05:02:49.355Z,24.47
2018-10-11T05:05:18.578Z,22.87
2018-10-11T05:07:47.770Z,20.83
2018-10-11T05:10:17.667Z,22.40
2018-10-11T05:12:47.029Z,23.20
2018-10-11T05:15:16.255Z,24.87
2018-10-11T05:17:45.978Z,23.90
2018-10-11T05:20:15.284Z,23.90
2018-10-11T05:22:44.535Z,24.18
2018-10-11T05:25:14.048Z,24.93
2018-10-11T05:27:43.285Z,23.90
2018-10-11T05:30:12.820Z,23.20
2018-10-11T05:32:42.082Z,23.87
2018-10-11T05:35:12.032Z,22.97
2018-10-11T05:37:41.261Z,22.40
2018-10-11T05:40:11.111Z,23.87
2018-10-11T05:42:40.351Z,25.77
2018-10-11T05:45:25.268Z,23.43
2018-10-11T05:47:54.530Z,22.53
2018-10-11T05:50:23.924Z,22.22
2018-10-11T05:52:55.940Z,23.07
2018-10-11T05:55:25.231Z,21.07
2018-10-11T05:57:54.451Z,22.80
2018-10-11T06:00:23.913Z,22.93
2018-10-11T06:02:58.234Z,22.70
2018-10-11T06:05:27.922Z,20.90
2018-10-11T06:07:57.424Z,23.13
2018-10-11T06:10:27.516Z,20.60
2018-10-11T06:12:57.051Z,19.35
2018-10-11T06:15:26.328Z,19.53
2018-10-11T06:17:55.622Z,19.23
2018-10-11T06:20:24.788Z,18.93
2018-10-11T06:22:54.004Z,18.40
2018-10-11T06:25:23.245Z,18.40
2018-10-11T06:27:52.488Z,17.20
2018-10-11T06:30:21.962Z,18.10
2018-10-11T06:32:51.287Z,20.20
2018-10-11T06:35:20.703Z,18.10
2018-10-11T06:37:50.876Z,17.67
2018-10-11T06:40:20.122Z,17.50
2018-10-11T06:42:49.461Z,17.90
2018-10-11T06:45:18.609Z,18.87
2018-10-11T06:47:50.294Z,17.83
2018-10-11T06:50:19.598Z,17.10
2018-10-11T06:52:48.828Z,17.10
2018-10-11T06:55:17.982Z,17.43
2018-10-11T06:57:47.183Z,23.73
2018-10-11T07:00:16.405Z,19.30
2018-10-11T07:02:45.661Z,18.50
2018-10-11T07:05:14.910Z,18.50
2018-10-11T07:07:44.095Z,19.17
2018-10-11T07:10:13.360Z,17.60
2018-10-11T07:12:42.600Z,20.00
2018-10-11T07:15:12.399Z,18.90
2018-10-11T07:17:41.600Z,18.07
2018-10-11T07:20:11.399Z,17.10
2018-10-11T07:22:40.620Z,17.90
2018-10-11T07:25:12.185Z,15.57
2018-10-11T07:27:41.456Z,17.02
2018-10-11T07:30:12.014Z,17.67
2018-10-11T07:32:41.227Z,17.50
2018-10-11T07:35:11.376Z,19.00
2018-10-11T07:37:40.542Z,19.27
2018-10-11T07:40:10.787Z,18.80
2018-10-11T07:42:39.999Z,16.97
2018-10-11T07:45:09.803Z,17.23
2018-10-11T07:47:39.032Z,17.80
2018-10-11T07:50:08.922Z,17.37
2018-10-11T07:52:38.155Z,19.43
2018-10-11T07:55:07.752Z,19.37
2018-10-11T07:57:36.979Z,18.53
2018-10-11T08:00:06.489Z,19.17
2018-10-11T08:02:35.753Z,20.03
2018-10-11T08:05:05.051Z,20.83
2018-10-11T08:07:34.346Z,18.50
2018-10-11T08:10:04.083Z,18.30
2018-10-11T08:12:33.328Z,17.70
2018-10-11T08:15:02.546Z,18.00
2018-10-11T08:17:35.058Z,18.10
2018-10-11T08:20:04.043Z,16.97
2018-10-11T08:22:33.177Z,16.03
2018-10-11T08:25:02.555Z,17.43
2018-10-11T08:27:31.592Z,16.73
2018-10-11T08:30:01.224Z,16.20
2018-10-11T08:32:30.548Z,17.07
2018-10-11T08:34:59.630Z,16.87
2018-10-11T08:37:28.916Z,17.23
2018-10-11T08:39:58.324Z,17.27
2018-10-11T08:42:27.603Z,16.80
2018-10-11T08:44:56.813Z,17.00
2018-10-11T08:47:26.030Z,15.70
2018-10-11T08:49:55.246Z,17.27
2018-10-11T08:52:24.448Z,16.80
2018-10-11T08:54:53.887Z,16.47
2018-10-11T08:57:23.292Z,16.50
2018-10-11T08:59:52.483Z,18.30
2018-10-11T09:02:21.742Z,18.47
2018-10-11T09:04:51.002Z,18.17
2018-10-11T09:07:20.197Z,18.00
2018-10-11T09:09:53.563Z,19.27
2018-10-11T09:12:18.592Z,18.20
2018-10-11T09:14:47.789Z,19.37
2018-10-11T09:17:17.063Z,20.20
2018-10-11T09:19:46.229Z,18.83
2018-10-11T09:22:15.444Z,18.50
2018-10-11T09:24:44.652Z,18.83
2018-10-11T09:27:13.851Z,17.63
2018-10-11T09:29:43.060Z,19.53
2018-10-11T09:32:12.307Z,18.93
2018-10-11T09:34:41.545Z,18.10
2018-10-11T09:37:11.059Z,18.60
2018-10-11T09:39:40.295Z,18.70
2018-10-11T09:42:10.001Z,18.77
2018-10-11T09:44:39.224Z,18.77
2018-10-11T09:47:08.727Z,19.77
2018-10-11T09:49:37.935Z,17.73
2018-10-11T09:52:07.176Z,19.57
2018-10-11T09:54:36.362Z,20.00
2018-10-11T09:57:17.672Z,19.70
2018-10-11T09:59:46.942Z,18.82
2018-10-11T10:02:17.679Z,18.53
2018-10-11T10:04:49.295Z,20.32
2018-10-11T10:07:19.249Z,18.97
2018-10-11T10:09:49.823Z,18.27
2018-10-11T10:12:19.109Z,18.83
2018-10-11T10:14:48.968Z,19.70
2018-10-11T10:17:18.253Z,17.80
2018-10-11T10:19:47.634Z,18.00
2018-10-11T10:22:16.875Z,19.80
2018-10-11T10:24:46.090Z,23.30
2018-10-11T10:27:15.346Z,19.80
2018-10-11T10:29:44.486Z,20.53
2018-10-11T10:32:13.688Z,20.23
2018-10-11T10:34:42.860Z,19.30
2018-10-11T10:37:12.492Z,19.20
2018-10-11T10:39:41.737Z,21.47
2018-10-11T10:42:11.272Z,20.93
2018-10-11T10:44:40.479Z,18.50
2018-10-11T10:47:10.365Z,19.40
2018-10-11T10:49:39.550Z,19.00
2018-10-11T10:52:09.192Z,20.20
2018-10-11T10:54:38.392Z,22.47
2018-10-11T10:57:08.160Z,22.07
2018-10-11T10:59:38.381Z,20.20
2018-10-11T11:02:08.049Z,19.47
2018-10-11T11:04:37.255Z,20.70
2018-10-11T11:07:06.531Z,20.63
2018-10-11T11:09:35.780Z,20.50
2018-10-11T11:12:05.039Z,20.20
2018-10-11T11:14:34.235Z,20.50
2018-10-11T11:17:03.403Z,20.40
2018-10-11T11:19:32.632Z,19.07
2018-10-11T11:22:01.849Z,19.87
2018-10-11T11:24:31.017Z,17.73
2018-10-11T11:27:00.243Z,19.30
2018-10-11T11:29:29.464Z,19.37
2018-10-11T11:31:58.695Z,18.67
2018-10-11T11:34:27.870Z,18.35
2018-10-11T11:36:57.085Z,20.03
2018-10-11T11:39:26.256Z,22.50
2018-10-11T11:41:55.484Z,21.10
2018-10-11T11:44:24.664Z,20.80
2018-10-11T11:46:53.908Z,19.77
2018-10-11T11:49:23.132Z,17.50
2018-10-11T11:51:52.439Z,20.30
2018-10-11T11:54:22.475Z,19.87
2018-10-11T11:56:52.302Z,18.77
2018-10-11T11:59:21.526Z,20.13
2018-10-11T12:01:50.762Z,20.00
2018-10-11T12:04:19.987Z,18.20
2018-10-11T12:06:49.199Z,18.43
2018-10-11T12:09:18.388Z,18.33
2018-10-11T12:11:47.581Z,18.77
2018-10-11T12:14:16.810Z,18.53
2018-10-11T12:16:46.092Z,19.30
2018-10-11T12:19:15.354Z,18.00
2018-10-11T12:21:44.580Z,18.90
2018-10-11T12:24:13.808Z,17.33
2018-10-11T12:26:43.010Z,17.37
2018-10-11T12:29:12.449Z,17.37
2018-10-11T12:31:41.640Z,17.90
2018-10-11T12:34:11.232Z,16.37
2018-10-11T12:36:40.415Z,16.10
2018-10-11T12:39:10.526Z,18.90
2018-10-11T12:41:39.737Z,17.80
2018-10-11T12:44:09.784Z,18.12
2018-10-11T12:46:40.634Z,16.80
2018-10-11T12:49:08.816Z,17.93
2018-10-11T12:51:38.016Z,18.20
2018-10-11T12:54:07.657Z,16.30
2018-10-11T12:56:37.005Z,15.80
2018-10-11T12:59:06.361Z,14.17
2018-10-11T13:01:35.585Z,15.27
2018-10-11T13:04:04.796Z,14.30
2018-10-11T13:06:34.000Z,14.53
2018-10-11T13:09:03.322Z,16.60
2018-10-11T13:11:32.521Z,13.97
2018-10-11T13:14:01.712Z,15.10
2018-10-11T13:16:30.892Z,15.73
2018-10-11T13:19:00.084Z,15.87
2018-10-11T13:21:29.395Z,14.33
2018-10-11T13:23:58.592Z,14.43
2018-10-11T13:26:27.783Z,15.27
2018-10-11T13:28:57.082Z,15.37
2018-10-11T13:31:26.180Z,14.73
2018-10-11T13:33:55.360Z,15.03
2018-10-11T13:36:24.576Z,13.78
2018-10-11T13:38:53.758Z,13.60
2018-10-11T13:41:23.014Z,12.53
2018-10-11T13:43:52.500Z,14.10
2018-10-11T13:46:21.804Z,12.93
2018-10-11T13:48:51.018Z,11.93
2018-10-11T13:51:20.244Z,13.57
2018-10-11T13:53:53.131Z,12.47
2018-10-11T13:56:18.684Z,13.37
2018-10-11T13:58:47.981Z,11.40
2018-10-11T14:01:17.447Z,13.20
2018-10-11T14:03:47.143Z,11.77
2018-10-11T14:06:17.328Z,12.67
2018-10-11T14:08:46.780Z,13.70
2018-10-11T14:11:16.042Z,12.23
2018-10-11T14:13:45.259Z,12.63
2018-10-11T14:16:14.465Z,14.10
2018-10-11T14:18:43.640Z,13.10
2018-10-11T14:21:12.880Z,11.17
2018-10-11T14:23:42.098Z,12.17
2018-10-11T14:26:11.286Z,12.93
2018-10-11T14:28:40.485Z,11.93
2018-10-11T14:31:10.233Z,12.13
2018-10-11T14:33:39.549Z,12.30
2018-10-11T14:36:09.114Z,12.20
2018-10-11T14:38:38.295Z,11.20
2018-10-11T14:41:07.534Z,11.30
2018-10-11T14:43:36.723Z,11.83
2018-10-11T14:46:05.924Z,12.40
2018-10-11T14:48:35.104Z,10.77
2018-10-11T14:51:04.532Z,11.73
2018-10-11T14:53:33.726Z,10.60
2018-10-11T14:56:02.901Z,11.50
2018-10-11T14:58:32.201Z,11.50
2018-10-11T15:01:01.443Z,11.27
2018-10-11T15:03:30.680Z,10.83
2018-10-11T15:05:59.869Z,12.07
2018-10-11T15:08:29.140Z,12.13
2018-10-11T15:10:58.411Z,10.30
2018-10-11T15:13:27.522Z,11.90
2018-10-11T15:15:57.043Z,11.30
2018-10-11T15:18:26.181Z,12.10
2018-10-11T15:20:55.400Z,10.93
2018-10-11T15:23:24.607Z,11.43
2018-10-11T15:25:53.780Z,12.10
2018-10-11T15:28:22.983Z,10.93
2018-10-11T15:30:52.215Z,11.63
2018-10-11T15:33:21.738Z,12.80
2018-10-11T15:35:50.983Z,11.27
2018-10-11T15:38:20.255Z,11.70
2018-10-11T15:40:49.474Z,12.23
2018-10-11T15:43:18.660Z,12.80
2018-10-11T15:45:48.063Z,13.40
2018-10-11T15:48:17.271Z,11.27
2018-10-11T15:50:46.467Z,12.03
2018-10-11T15:53:15.677Z,12.17
2018-10-11T15:55:44.887Z,12.97
2018-10-11T15:58:14.072Z,11.77
2018-10-11T16:00:44.164Z,11.53
2018-10-11T16:03:13.754Z,12.47
2018-10-11T16:05:43.028Z,12.67
2018-10-11T16:08:12.170Z,13.40
2018-10-11T16:10:41.501Z,13.43
2018-10-11T16:13:10.634Z,13.30
2018-10-11T16:15:39.803Z,13.83
2018-10-11T16:18:09.388Z,12.03
2018-10-11T16:20:38.726Z,12.13
2018-10-11T16:23:08.429Z,11.67
2018-10-11T16:25:37.619Z,12.90
2018-10-11T16:28:06.827Z,11.70
2018-10-11T16:30:36.185Z,12.40
2018-10-11T16:33:05.775Z,11.30
2018-10-11T16:35:34.972Z,11.63
2018-10-11T16:38:04.184Z,11.47
2018-10-11T16:40:33.388Z,11.73
2018-10-11T16:43:02.580Z,12.37
2018-10-11T16:45:31.888Z,12.80
2018-10-11T16:48:01.206Z,13.17
2018-10-11T16:50:30.438Z,12.27
2018-10-11T16:53:00.067Z,12.27
2018-10-11T16:55:29.380Z,11.97
2018-10-11T16:57:58.636Z,12.37
2018-10-11T17:00:27.896Z,13.27
2018-10-11T17:02:57.078Z,12.17
2018-10-11T17:05:26.289Z,11.80
2018-10-11T17:07:55.588Z,12.63
2018-10-11T17:10:24.783Z,13.10
2018-10-11T17:12:53.956Z,13.40
2018-10-11T17:15:23.389Z,16.20
2018-10-11T17:17:52.585Z,13.62
2018-10-11T17:20:22.555Z,14.05
2018-10-11T17:22:51.857Z,13.27
2018-10-11T17:25:21.145Z,12.80
2018-10-11T17:28:17.189Z,15.13
2018-10-11T17:30:46.407Z,13.37
2018-10-11T17:33:16.279Z,14.33
2018-10-11T17:35:45.504Z,15.30
2018-10-11T17:38:14.720Z,14.37
2018-10-11T17:40:43.947Z,14.30
2018-10-11T17:43:13.699Z,13.10
2018-10-11T17:45:42.925Z,22.13
2018-10-11T17:48:12.202Z,18.42
2018-10-11T17:50:41.398Z,16.93
2018-10-11T17:53:10.595Z,13.30
2018-10-11T17:55:39.855Z,14.47
2018-10-11T17:58:09.347Z,15.83
2018-10-11T18:00:38.640Z,14.90
2018-10-11T18:03:08.001Z,14.80
2018-10-11T18:05:37.193Z,13.77
2018-10-11T18:08:06.384Z,15.27
2018-10-11T18:10:35.588Z,14.70
2018-10-11T18:13:04.811Z,14.03
2018-10-11T18:15:33.992Z,15.50
2018-10-11T18:18:03.199Z,16.30
2018-10-11T18:20:32.419Z,15.43
2018-10-11T18:23:01.626Z,14.00
2018-10-11T18:25:30.809Z,15.10
2018-10-11T18:28:00.035Z,15.53
2018-10-11T18:30:29.290Z,16.10
2018-10-11T18:32:58.553Z,15.65
2018-10-11T18:35:27.846Z,15.00
2018-10-11T18:37:57.156Z,15.00
2018-10-11T18:40:26.339Z,15.23
2018-10-11T18:42:55.577Z,15.88
2018-10-11T18:45:24.807Z,19.27
2018-10-11T18:47:54.023Z,17.10
2018-10-11T18:50:23.380Z,17.65
2018-10-11T18:52:52.553Z,15.50
2018-10-11T18:55:22.360Z,14.23
2018-10-11T18:57:51.741Z,15.00
2018-10-11T19:00:21.302Z,15.10
2018-10-11T19:02:50.552Z,14.03
2018-10-11T19:05:19.767Z,15.10
2018-10-11T19:07:49.603Z,22.27
2018-10-11T19:10:19.494Z,17.33
2018-10-11T19:12:48.714Z,15.53
2018-10-11T19:15:20.216Z,14.95
2018-10-11T19:17:49.450Z,16.07
2018-10-11T19:20:19.178Z,16.60
2018-10-11T19:22:48.403Z,14.67
2018-10-11T19:25:18.552Z,15.27
2018-10-11T19:27:47.781Z,16.00
2018-10-11T19:30:17.624Z,23.10
2018-10-11T19:32:46.839Z,17.30
2018-10-11T19:35:16.608Z,15.90
2018-10-11T19:37:45.784Z,15.80
2018-10-11T19:40:16.061Z,15.40
2018-10-11T19:42:45.261Z,15.40
2018-10-11T19:45:14.803Z,16.50
2018-10-11T19:47:43.972Z,16.33
2018-10-11T19:50:13.279Z,17.37
2018-10-11T19:52:42.488Z,16.97
2018-10-11T19:55:11.691Z,16.43
2018-10-11T19:57:40.910Z,16.90
2018-10-11T20:00:10.137Z,17.50
2018-10-11T20:02:39.339Z,17.27
2018-10-11T20:05:08.595Z,18.70
2018-10-11T20:07:37.879Z,17.97
2018-10-11T20:10:07.445Z,22.33
2018-10-11T20:12:36.833Z,20.87
2018-10-11T20:15:06.202Z,20.23
2018-10-11T20:17:35.479Z,19.43
2018-10-11T20:20:04.886Z,18.67
2018-10-11T20:22:34.123Z,16.70
2018-10-11T20:25:03.327Z,19.20
2018-10-11T20:27:32.549Z,19.20
2018-10-11T20:30:01.773Z,20.00
2018-10-11T20:32:31.644Z,20.13
2018-10-11T20:35:00.853Z,17.60
2018-10-11T20:37:30.036Z,19.10
2018-10-11T20:39:59.236Z,20.10
2018-10-11T20:42:28.741Z,19.10
2018-10-11T20:44:58.028Z,19.30
2018-10-11T20:47:27.264Z,21.37
2018-10-11T20:49:56.473Z,22.23
2018-10-11T20:52:25.665Z,21.93
2018-10-11T20:54:54.916Z,19.73
2018-10-11T20:57:24.176Z,19.05
2018-10-11T20:59:53.368Z,20.13
2018-10-11T21:02:22.571Z,20.60
2018-10-11T21:04:51.756Z,18.27
2018-10-11T21:07:20.948Z,20.07
2018-10-11T21:09:50.116Z,20.20
2018-10-11T21:12:19.339Z,20.07
2018-10-11T21:14:48.520Z,20.10
2018-10-11T21:17:18.309Z,20.27
2018-10-11T21:19:47.501Z,19.20
2018-10-11T21:22:16.700Z,19.70
2018-10-11T21:24:45.911Z,26.65
2018-10-11T21:27:15.840Z,22.80
2018-10-11T21:29:45.036Z,19.90
2018-10-11T21:32:14.363Z,19.77
2018-10-11T21:34:43.536Z,19.80
2018-10-11T21:37:12.900Z,19.80
2018-10-11T21:39:42.065Z,19.93
2018-10-11T21:42:11.273Z,19.00
2018-10-11T21:44:40.475Z,19.80
2018-10-11T21:47:09.692Z,18.57
2018-10-11T21:49:38.906Z,19.60
2018-10-11T21:52:08.768Z,19.40
2018-10-11T21:54:37.964Z,22.30
2018-10-11T21:57:07.635Z,22.03
2018-10-11T21:59:36.871Z,20.10
2018-10-11T22:02:06.049Z,21.43
2018-10-11T22:04:35.235Z,21.00
2018-10-11T22:07:04.472Z,19.45
2018-10-11T22:09:33.650Z,21.70
2018-10-11T22:12:02.918Z,22.77
2018-10-11T22:14:32.101Z,22.70
2018-10-11T22:17:01.387Z,21.77
2018-10-11T22:19:30.592Z,20.90
2018-10-11T22:21:59.795Z,21.10
2018-10-11T22:24:29.009Z,21.62
2018-10-11T22:26:58.266Z,21.70
2018-10-11T22:29:27.471Z,22.20
2018-10-11T22:31:56.760Z,23.80
2018-10-11T22:34:25.959Z,22.67
2018-10-11T22:36:55.197Z,21.90
2018-10-11T22:39:24.376Z,22.83
2018-10-11T22:41:53.636Z,23.00
2018-10-11T22:44:22.867Z,22.43
2018-10-11T22:46:52.115Z,23.73
2018-10-11T22:49:21.380Z,21.20
2018-10-11T22:51:50.603Z,22.07
2018-10-11T22:54:19.905Z,21.93
2018-10-11T22:56:49.112Z,22.70
2018-10-11T22:59:18.315Z,21.63
2018-10-11T23:01:50.781Z,20.50
2018-10-11T23:04:20.042Z,22.13
2018-10-11T23:06:49.251Z,20.70
2018-10-11T23:09:18.587Z,22.97
2018-10-11T23:11:47.780Z,24.90
2018-10-11T23:14:17.006Z,23.93
2018-10-11T23:16:46.166Z,22.27
2018-10-11T23:19:16.053Z,22.33
2018-10-11T23:21:45.231Z,21.77
2018-10-11T23:24:14.649Z,21.63
2018-10-11T23:26:46.787Z,21.60
2018-10-11T23:29:16.556Z,21.47
2018-10-11T23:31:45.760Z,21.87
2018-10-11T23:34:15.560Z,22.80
2018-10-11T23:36:45.774Z,22.30
2018-10-11T23:39:15.540Z,24.70
2018-10-11T23:41:44.754Z,23.90
2018-10-11T23:44:14.529Z,23.27
2018-10-11T23:46:43.735Z,22.93
2018-10-11T23:49:12.946Z,21.73
2018-10-11T23:51:42.127Z,21.57
2018-10-11T23:54:11.372Z,22.17
2018-10-11T23:56:40.559Z,22.40
2018-10-11T23:59:09.752Z,21.47
